Time;durP1;ratioP1;P1;durP2;ratioP2;P2;SDS_P1;SDS_P2;PMS_P1;PMS_P2;Temp;Humidity;BMP_temperature;BMP_pressure;BME280_temperature;BME280_humidity;BME280_pressure;Samples;Min_cycle;Max_cycle;Signal;HPM_P1;HPM_P2
2023/07/05 00:01:41;;;;;;;8.48;2.80;;;16.10;1.00;;;;;;5056509;28;20903;-67
2023/07/05 00:04:06;;;;;;;8.97;3.13;;;16.00;86.60;;;;;;5069284;28;20504;-67
2023/07/05 00:06:32;;;;;;;8.60;3.60;;;16.00;99.90;;;;;;5088251;28;20398;-67
2023/07/05 00:08:58;;;;;;;6.70;3.38;;;16.00;99.90;;;;;;5069954;28;20401;-67
2023/07/05 00:11:23;;;;;;;11.48;3.90;;;16.00;99.90;;;;;;5048345;28;20400;-67
2023/07/05 00:13:49;;;;;;;8.20;4.23;;;16.00;99.90;;;;;;5065330;28;20430;-67
2023/07/05 00:16:15;;;;;;;9.05;4.15;;;16.00;99.90;;;;;;5085808;28;20405;-67
2023/07/05 00:18:41;;;;;;;11.43;4.70;;;16.00;99.90;;;;;;5071513;28;20439;-67
2023/07/05 00:21:08;;;;;;;9.88;5.15;;;15.90;99.90;;;;;;5071439;28;20398;-67
2023/07/05 00:23:36;;;;;;;12.20;5.80;;;16.00;99.90;;;;;;5071666;28;20575;-67
2023/07/05 00:26:04;;;;;;;11.67;5.93;;;16.00;99.90;;;;;;5088988;28;20402;-67
2023/07/05 00:28:33;;;;;;;12.93;6.25;;;16.00;99.90;;;;;;5071306;28;20831;-67
2023/07/05 00:30:59;;;;;;;13.73;6.03;;;16.00;99.90;;;;;;5072357;28;20437;-67
2023/07/05 00:33:25;;;;;;;11.90;5.53;;;16.00;99.90;;;;;;5054510;28;20533;-67
2023/07/05 00:35:53;;;;;;;9.80;5.10;;;16.00;99.90;;;;;;5071471;28;20401;-67
2023/07/05 00:38:19;;;;;;;10.13;5.18;;;16.00;99.90;;;;;;5088636;28;20402;-67
2023/07/05 00:40:46;;;;;;;10.88;4.90;;;16.10;99.90;;;;;;5089189;28;20400;-67
2023/07/05 00:43:13;;;;;;;12.15;4.38;;;16.10;99.90;;;;;;5067883;28;20419;-67
2023/07/05 00:45:53;;;;;;;11.57;4.55;;;16.10;99.90;;;;;;5086808;28;20397;-67
2023/07/05 00:48:25;;;;;;;11.88;4.75;;;16.10;99.90;;;;;;5039927;28;20414;-67
2023/07/05 00:50:55;;;;;;;10.90;4.20;;;16.10;99.90;;;;;;5083121;28;20813;-67
2023/07/05 00:53:23;;;;;;;12.88;4.72;;;16.10;99.90;;;;;;5066508;28;20914;-68
2023/07/05 00:56:04;;;;;;;9.27;4.63;;;16.10;99.90;;;;;;5069805;28;20891;-68
2023/07/05 00:58:30;;;;;;;7.43;3.78;;;16.10;99.90;;;;;;5052541;28;20402;-68
2023/07/05 01:00:56;;;;;;;11.77;4.40;;;16.10;99.90;;;;;;5064605;28;20402;-68
2023/07/05 01:03:24;;;;;;;11.40;4.70;;;16.10;99.90;;;;;;5069225;28;20924;-68
2023/07/05 01:05:55;;;;;;;10.75;4.50;;;16.10;99.90;;;;;;5082433;28;20432;-68
2023/07/05 01:08:21;;;;;;;10.68;4.50;;;16.10;99.90;;;;;;5067577;28;20406;-68
2023/07/05 01:10:57;;;;;;;10.67;4.60;;;16.10;99.90;;;;;;5057919;28;20407;-68
2023/07/05 01:13:39;;;;;;;7.87;4.07;;;16.00;99.90;;;;;;5070448;28;20524;-68
2023/07/05 01:16:30;;;;;;;11.52;4.32;;;15.90;99.90;;;;;;5053693;28;20394;-68
2023/07/05 01:19:05;;;;;;;10.77;4.47;;;15.90;99.90;;;;;;5087611;28;20410;-68
2023/07/05 01:21:54;;;;;;;10.73;4.60;;;15.90;99.90;;;;;;5070613;28;20454;-68
2023/07/05 01:24:22;;;;;;;11.15;4.30;;;15.90;99.90;;;;;;5069686;28;20410;-68
2023/07/05 01:27:06;;;;;;;11.90;4.70;;;15.80;99.90;;;;;;5062971;28;20410;-68
2023/07/05 01:30:00;;;;;;;8.80;4.30;;;15.80;99.90;;;;;;5066090;28;20823;-68
2023/07/05 01:32:42;;;;;;;10.33;4.57;;;15.80;99.90;;;;;;5069835;28;20919;-68
2023/07/05 01:35:20;;;;;;;10.15;4.78;;;15.80;99.90;;;;;;5040213;28;20464;-68
2023/07/05 01:37:46;;;;;;;9.73;4.90;;;15.70;99.90;;;;;;5067479;28;20769;-68
2023/07/05 01:40:21;;;;;;;9.38;5.15;;;15.70;99.90;;;;;;5084896;28;20390;-68
2023/07/05 01:42:50;;;;;;;13.18;5.65;;;15.70;99.90;;;;;;5088090;28;20408;-68
2023/07/05 01:45:16;;;;;;;11.60;5.18;;;15.70;99.90;;;;;;5065049;28;20418;-68
2023/07/05 01:47:49;;;;;;;11.77;5.70;;;15.70;1.00;;;;;;5085876;28;20425;-68
2023/07/05 01:50:25;;;;;;;9.75;5.28;;;15.70;1.00;;;;;;5058174;28;20450;-68
2023/07/05 01:53:00;;;;;;;13.40;5.82;;;15.80;1.00;;;;;;5069765;28;20911;-68
2023/07/05 01:55:35;;;;;;;10.73;5.43;;;15.80;1.00;;;;;;5058192;28;20487;-68
2023/07/05 01:58:18;;;;;;;11.90;5.47;;;15.80;1.00;;;;;;5062159;28;20410;-68
2023/07/05 02:00:46;;;;;;;14.48;6.03;;;15.80;1.00;;;;;;5057492;28;20459;-68
2023/07/05 02:03:16;;;;;;;12.60;5.95;;;15.80;1.00;;;;;;5061562;28;20418;-68
2023/07/05 02:05:42;;;;;;;10.45;5.57;;;15.80;1.00;;;;;;5066042;28;20485;-68
2023/07/05 02:08:07;;;;;;;11.38;5.75;;;15.80;1.00;;;;;;5052943;28;20406;-68
2023/07/05 02:10:33;;;;;;;16.00;6.83;;;15.70;1.00;;;;;;5088438;28;20394;-68
2023/07/05 02:13:02;;;;;;;12.65;6.35;;;15.70;1.00;;;;;;5069875;28;20472;-68
2023/07/05 02:15:28;;;;;;;15.95;6.82;;;15.60;1.00;;;;;;5088153;28;20807;-68
2023/07/05 02:17:53;;;;;;;15.43;6.93;;;15.60;1.00;;;;;;5069644;28;20402;-68
2023/07/05 02:20:19;;;;;;;13.50;7.13;;;15.50;1.00;;;;;;5081731;28;20395;-68
2023/07/05 02:22:45;;;;;;;14.13;7.57;;;15.50;1.00;;;;;;5052727;28;20412;-68
2023/07/05 02:25:10;;;;;;;14.73;7.33;;;15.50;1.00;;;;;;5069836;28;20928;-68
2023/07/05 02:27:37;;;;;;;13.32;7.32;;;15.50;1.00;;;;;;5069778;28;20410;-68
2023/07/05 02:30:05;;;;;;;14.52;7.40;;;15.50;1.00;;;;;;5063637;28;20404;-68
2023/07/05 02:32:30;;;;;;;17.05;7.95;;;15.40;1.00;;;;;;5038877;28;20407;-68
2023/07/05 02:34:59;;;;;;;14.83;7.83;;;15.40;1.00;;;;;;5056142;28;20493;-68
2023/07/05 02:37:24;;;;;;;16.98;7.85;;;15.40;1.00;;;;;;5088133;28;20804;-68
2023/07/05 02:39:53;;;;;;;14.18;7.82;;;15.40;1.00;;;;;;5053092;28;20462;-68
2023/07/05 02:42:19;;;;;;;16.63;7.80;;;15.30;1.00;;;;;;5059108;28;20920;-68
2023/07/05 02:44:48;;;;;;;16.13;8.00;;;15.30;1.00;;;;;;5051364;28;20430;-68
2023/07/05 02:47:15;;;;;;;14.65;8.18;;;15.20;1.00;;;;;;5054064;28;20439;-68
2023/07/05 02:49:41;;;;;;;17.00;8.55;;;15.20;1.00;;;;;;5064607;28;20402;-68
2023/07/05 02:52:06;;;;;;;19.97;8.50;;;15.20;1.00;;;;;;5059560;28;20420;-68
2023/07/05 02:54:32;;;;;;;14.07;8.50;;;15.10;1.00;;;;;;5065022;28;21351;-68
2023/07/05 02:56:57;;;;;;;16.87;8.20;;;15.20;1.00;;;;;;5060307;28;20504;-68
2023/07/05 02:59:23;;;;;;;16.58;8.40;;;15.10;1.00;;;;;;5068242;28;20482;-68
2023/07/05 03:01:49;;;;;;;15.10;9.23;;;15.10;1.00;;;;;;5058574;28;20481;-68
2023/07/05 03:04:15;;;;;;;16.58;8.90;;;15.10;1.00;;;;;;5069018;28;20402;-68
2023/07/05 03:06:40;;;;;;;18.83;9.77;;;15.10;1.00;;;;;;5068463;28;20398;-68
2023/07/05 03:09:06;;;;;;;17.42;9.32;;;15.00;1.00;;;;;;5065365;28;20483;-68
2023/07/05 03:11:31;;;;;;;15.97;9.17;;;15.00;1.00;;;;;;5068580;28;20914;-68
2023/07/05 03:13:57;;;;;;;16.58;9.48;;;15.00;1.00;;;;;;5068343;28;20822;-68
2023/07/05 03:16:23;;;;;;;15.47;9.40;;;14.90;1.00;;;;;;5083725;28;20391;-68
2023/07/05 03:18:48;;;;;;;17.13;10.43;;;14.90;1.00;;;;;;5061292;28;20413;-68
2023/07/05 03:21:14;;;;;;;18.35;10.38;;;14.90;6.20;;;;;;5068975;28;20398;-68
2023/07/05 03:23:39;;;;;;;18.03;10.27;;;14.90;10.60;;;;;;5086755;28;20469;-68
2023/07/05 03:26:09;;;;;;;20.73;10.90;;;14.90;14.70;;;;;;5068186;28;20406;-68
2023/07/05 03:28:36;;;;;;;18.67;9.65;;;14.90;10.40;;;;;;5065308;28;20402;-68
2023/07/05 03:31:11;;;;;;;14.77;9.63;;;14.90;10.70;;;;;;5038687;28;20415;-68
2023/07/05 03:33:37;;;;;;;18.83;9.90;;;14.90;16.20;;;;;;5041719;28;20438;-68
2023/07/05 03:36:10;;;;;;;19.67;10.18;;;14.90;16.00;;;;;;5069364;28;20404;-68
2023/07/05 03:38:36;;;;;;;18.75;10.70;;;14.80;19.20;;;;;;5069947;28;20414;-68
2023/07/05 03:41:10;;;;;;;19.30;11.27;;;14.80;22.80;;;;;;5068939;28;20402;-68
2023/07/05 03:43:37;;;;;;;18.23;10.48;;;14.80;23.20;;;;;;5059159;28;20895;-68
2023/07/05 03:46:07;;;;;;;17.67;10.50;;;14.80;24.10;;;;;;5069516;28;20440;-68
2023/07/05 03:48:36;;;;;;;18.88;10.95;;;14.70;25.40;;;;;;5087484;28;20406;-68
2023/07/05 03:51:02;;;;;;;17.58;11.27;;;14.70;27.10;;;;;;5067235;28;20410;-68
2023/07/05 03:53:28;;;;;;;18.80;11.10;;;14.60;26.50;;;;;;5083767;28;20429;-68
2023/07/05 03:56:00;;;;;;;19.38;10.73;;;14.70;30.80;;;;;;5087113;28;20410;-68
2023/07/05 03:58:26;;;;;;;20.70;11.27;;;14.70;33.40;;;;;;5065968;28;20417;-68
2023/07/05 04:00:51;;;;;;;18.57;11.20;;;14.70;34.00;;;;;;5068797;28;20401;-68
2023/07/05 04:03:17;;;;;;;18.58;11.95;;;14.70;37.10;;;;;;5069335;28;20405;-69
2023/07/05 04:05:43;;;;;;;19.83;11.60;;;14.70;39.80;;;;;;5069126;28;20780;-68
2023/07/05 04:08:08;;;;;;;20.10;11.55;;;14.70;42.00;;;;;;5068766;28;20402;-68
2023/07/05 04:10:34;;;;;;;16.63;11.13;;;14.70;44.90;;;;;;5065521;28;20772;-68
2023/07/05 04:13:00;;;;;;;18.85;11.40;;;14.70;44.80;;;;;;5069363;28;20472;-68
2023/07/05 04:15:25;;;;;;;20.10;11.17;;;14.70;45.80;;;;;;5083345;28;20425;-68
2023/07/05 04:17:51;;;;;;;17.77;11.80;;;14.70;47.40;;;;;;5071007;28;20485;-68
2023/07/05 04:20:16;;;;;;;20.50;11.90;;;14.70;47.30;;;;;;5072528;28;20406;-67
2023/07/05 04:22:42;;;;;;;20.63;11.43;;;14.70;48.00;;;;;;5071656;28;20912;-67
2023/07/05 04:25:08;;;;;;;23.00;12.40;;;14.70;47.00;;;;;;5070195;28;20500;-67
2023/07/05 04:27:35;;;;;;;19.80;11.95;;;14.70;47.90;;;;;;5072174;28;20406;-67
2023/07/05 04:30:03;;;;;;;19.50;11.60;;;14.70;47.70;;;;;;5071919;28;20434;-67
2023/07/05 04:32:29;;;;;;;20.30;12.68;;;14.70;49.60;;;;;;5090362;28;20414;-67
2023/07/05 04:34:55;;;;;;;21.67;12.32;;;14.80;50.90;;;;;;5071667;28;20515;-67
2023/07/05 04:37:20;;;;;;;18.37;12.13;;;14.80;50.50;;;;;;5072780;28;20437;-67
2023/07/05 04:39:46;;;;;;;19.25;12.55;;;14.80;50.80;;;;;;5090603;28;20405;-67
2023/07/05 04:42:11;;;;;;;18.63;12.60;;;14.80;50.90;;;;;;5055438;28;20399;-67
2023/07/05 04:44:37;;;;;;;18.67;12.32;;;14.90;99.90;;;;;;5077612;28;20398;-67
2023/07/05 04:47:03;;;;;;;17.60;11.70;;;14.80;99.90;;;;;;5071986;28;20406;-67
2023/07/05 04:49:28;;;;;;;15.43;10.73;;;14.90;99.90;;;;;;5090088;28;20394;-67
2023/07/05 04:51:54;;;;;;;15.37;10.40;;;14.90;68.30;;;;;;5079885;28;20427;-67
2023/07/05 04:54:20;;;;;;;16.70;11.17;;;15.00;68.10;;;;;;5071549;28;20931;-67
2023/07/05 04:56:45;;;;;;;15.50;10.93;;;15.00;68.20;;;;;;5068948;28;20868;-67
2023/07/05 04:59:11;;;;;;;17.73;11.80;;;15.10;68.00;;;;;;5068515;28;20414;-67
2023/07/05 05:01:37;;;;;;;18.95;13.18;;;15.20;68.50;;;;;;5072191;28;20409;-67
2023/07/05 05:04:03;;;;;;;17.50;12.88;;;15.20;69.00;;;;;;5054801;28;20436;-67
2023/07/05 05:06:29;;;;;;;19.98;12.68;;;15.30;69.50;;;;;;5090237;28;21247;-67
2023/07/05 05:08:55;;;;;;;19.95;12.90;;;15.30;69.90;;;;;;5086496;28;20533;-67
2023/07/05 05:11:21;;;;;;;17.75;12.60;;;15.40;69.90;;;;;;5071317;28;20513;-67
2023/07/05 05:13:49;;;;;;;16.63;11.23;;;15.40;70.10;;;;;;5058806;28;20437;-67
2023/07/05 05:16:15;;;;;;;16.13;10.45;;;15.40;70.00;;;;;;5071479;28;20410;-68
2023/07/05 05:18:43;;;;;;;16.80;9.70;;;15.40;69.30;;;;;;5085579;28;20403;-66
2023/07/05 05:21:09;;;;;;;12.40;9.18;;;15.40;69.70;;;;;;5064373;28;20814;-66
2023/07/05 05:23:35;;;;;;;13.98;8.48;;;15.40;71.10;;;;;;5071103;28;20406;-67
2023/07/05 05:26:00;;;;;;;12.07;7.90;;;15.40;70.80;;;;;;5071210;28;20409;-67
2023/07/05 05:28:26;;;;;;;12.10;8.33;;;15.40;70.30;;;;;;5059148;28;20406;-67
2023/07/05 05:30:59;;;;;;;11.13;7.43;;;15.40;69.60;;;;;;5061706;28;20407;-67
2023/07/05 05:33:25;;;;;;;10.15;6.60;;;15.40;69.80;;;;;;5069108;28;20956;-67
2023/07/05 05:35:50;;;;;;;8.23;5.70;;;15.50;70.30;;;;;;5060413;28;20447;-67
2023/07/05 05:38:18;;;;;;;7.97;4.90;;;15.40;69.60;;;;;;5068186;28;20406;-67
2023/07/05 05:40:43;;;;;;;8.43;4.72;;;15.40;68.40;;;;;;5069700;28;20409;-67
2023/07/05 05:43:09;;;;;;;7.53;4.10;;;15.40;67.30;;;;;;5059213;28;20412;-67
2023/07/05 05:45:35;;;;;;;7.20;4.22;;;15.40;67.60;;;;;;5054383;28;20969;-67
2023/07/05 05:48:00;;;;;;;6.47;4.20;;;15.30;65.80;;;;;;5070555;28;20433;-67
2023/07/05 05:50:26;;;;;;;8.53;4.00;;;15.20;64.10;;;;;;5069254;28;20406;-67
2023/07/05 05:52:52;;;;;;;7.20;3.80;;;15.20;63.60;;;;;;5060357;28;20563;-67
2023/07/05 05:55:17;;;;;;;6.93;3.37;;;15.20;63.10;;;;;;5070206;28;20510;-67
2023/07/05 05:57:43;;;;;;;5.78;3.08;;;15.10;99.90;;;;;;5070234;28;20402;-67
2023/07/05 06:00:10;;;;;;;5.97;3.35;;;15.10;99.90;;;;;;5053241;28;20837;-67
2023/07/05 06:02:36;;;;;;;4.43;3.10;;;15.10;99.90;;;;;;5088062;28;20402;-67
2023/07/05 06:05:03;;;;;;;7.13;3.42;;;15.10;99.90;;;;;;5069924;28;20398;-67
2023/07/05 06:07:29;;;;;;;6.22;3.67;;;15.20;99.90;;;;;;5069930;28;20446;-67
2023/07/05 06:09:55;;;;;;;7.03;3.88;;;15.20;50.00;;;;;;5070596;28;20439;-67
2023/07/05 06:12:21;;;;;;;7.45;3.83;;;15.20;49.00;;;;;;5067867;28;20420;-67
2023/07/05 06:14:46;;;;;;;5.87;3.60;;;15.20;99.90;;;;;;5069975;28;20422;-67
2023/07/05 06:17:12;;;;;;;5.95;3.83;;;15.30;39.50;;;;;;5087947;28;20533;-67
2023/07/05 06:19:38;;;;;;;7.73;4.13;;;15.30;99.90;;;;;;5070579;28;20410;-67
2023/07/05 06:22:04;;;;;;;5.78;3.50;;;15.30;99.90;;;;;;5070509;28;20410;-67
2023/07/05 06:24:31;;;;;;;7.57;4.07;;;15.30;99.90;;;;;;5069224;28;20410;-67
2023/07/05 06:26:58;;;;;;;5.30;3.42;;;15.40;99.90;;;;;;5076277;28;20823;-67
2023/07/05 06:29:24;;;;;;;6.60;3.45;;;15.50;23.00;;;;;;5069767;28;20772;-67
2023/07/05 06:31:49;;;;;;;6.18;3.45;;;15.60;99.90;;;;;;5088078;28;20405;-68
2023/07/05 06:34:15;;;;;;;5.63;2.73;;;15.60;99.90;;;;;;5070357;28;20523;-67
2023/07/05 06:36:41;;;;;;;4.82;3.05;;;15.70;8.10;;;;;;5087685;28;20411;-68
2023/07/05 06:39:06;;;;;;;5.68;3.33;;;15.70;4.90;;;;;;5069924;28;20405;-68
2023/07/05 06:41:32;;;;;;;5.07;3.00;;;15.90;4.90;;;;;;5066839;28;20867;-68
2023/07/05 06:43:58;;;;;;;5.13;2.65;;;16.00;1.10;;;;;;5070055;28;20539;-68
2023/07/05 06:46:23;;;;;;;5.47;2.83;;;16.10;1.00;;;;;;5069894;28;20948;-68
2023/07/05 06:48:50;;;;;;;6.43;2.77;;;16.00;1.00;;;;;;5058366;28;20411;-68
2023/07/05 06:51:16;;;;;;;5.35;2.85;;;16.00;1.00;;;;;;5064667;28;20408;-68
2023/07/05 06:53:43;;;;;;;5.50;2.60;;;16.00;1.00;;;;;;5064596;28;20510;-68
2023/07/05 06:56:11;;;;;;;4.40;2.63;;;16.10;1.00;;;;;;5059876;28;20401;-67
2023/07/05 06:58:37;;;;;;;4.82;2.42;;;16.20;1.00;;;;;;5069787;28;20938;-68
2023/07/05 07:01:03;;;;;;;4.32;2.50;;;16.20;1.00;;;;;;5069407;28;20430;-67
2023/07/05 07:03:30;;;;;;;7.13;2.70;;;16.20;1.00;;;;;;5087469;28;20977;-68
2023/07/05 07:05:57;;;;;;;5.18;2.75;;;16.20;1.00;;;;;;5069589;28;21135;-68
2023/07/05 07:08:31;;;;;;;5.65;2.53;;;16.20;1.00;;;;;;5087281;28;20524;-68
2023/07/05 07:11:01;;;;;;;5.18;2.53;;;16.10;1.00;;;;;;5069191;28;20410;-68
2023/07/05 07:13:28;;;;;;;5.90;2.45;;;16.10;1.00;;;;;;5069250;28;20426;-68
2023/07/05 07:16:08;;;;;;;5.70;2.25;;;16.00;1.00;;;;;;5069472;28;20479;-68
2023/07/05 07:18:37;;;;;;;6.93;2.67;;;16.00;1.00;;;;;;5068616;28;20919;-68
2023/07/05 07:21:05;;;;;;;6.23;2.50;;;16.10;1.00;;;;;;5059971;28;20407;-68
2023/07/05 07:23:31;;;;;;;5.88;2.60;;;16.20;1.00;;;;;;5067622;28;20410;-68
2023/07/05 07:26:12;;;;;;;11.73;2.80;;;16.30;1.00;;;;;;5069501;28;20398;-68
2023/07/05 07:28:38;;;;;;;5.60;2.25;;;16.40;1.00;;;;;;5069590;28;20410;-68
2023/07/05 07:31:19;;;;;;;3.88;2.10;;;16.50;1.00;;;;;;5052558;28;20424;-68
2023/07/05 07:33:46;;;;;;;4.50;2.10;;;16.60;1.00;;;;;;5077907;28;20433;-68
2023/07/05 07:36:23;;;;;;;5.15;2.17;;;16.60;1.00;;;;;;5068595;28;20488;-68
2023/07/05 07:38:50;;;;;;;6.38;2.50;;;16.60;1.00;;;;;;5087804;28;20469;-68
2023/07/05 07:41:21;;;;;;;4.90;2.42;;;16.60;1.00;;;;;;5086980;28;20413;-68
2023/07/05 07:43:50;;;;;;;5.50;2.10;;;16.60;99.90;;;;;;5066121;28;20412;-68
2023/07/05 07:46:18;;;;;;;5.05;2.58;;;16.60;99.90;;;;;;5087148;28;20445;-68
2023/07/05 07:48:46;;;;;;;4.60;1.90;;;16.60;99.90;;;;;;5069466;28;20413;-68
2023/07/05 07:51:12;;;;;;;3.88;1.73;;;16.70;99.90;;;;;;5068270;28;20919;-68
2023/07/05 07:53:38;;;;;;;5.72;2.40;;;16.70;99.90;;;;;;5068789;28;20430;-68
2023/07/05 07:56:18;;;;;;;4.77;1.57;;;16.80;99.90;;;;;;5072525;28;20843;-68
2023/07/05 07:58:47;;;;;;;5.13;2.10;;;16.90;99.90;;;;;;5072975;28;20452;-68
2023/07/05 08:01:27;;;;;;;4.47;1.85;;;17.00;99.90;;;;;;5072853;28;20412;-68
2023/07/05 08:03:54;;;;;;;4.47;1.83;;;17.00;99.90;;;;;;5072750;28;20413;-68
2023/07/05 08:06:20;;;;;;;5.47;2.00;;;16.80;99.90;;;;;;5072467;28;20406;-68
2023/07/05 08:08:46;;;;;;;5.20;2.40;;;16.60;99.90;;;;;;5091028;28;20398;-68
2023/07/05 08:11:12;;;;;;;4.85;2.17;;;16.50;99.90;;;;;;5072934;28;20767;-68
2023/07/05 08:13:40;;;;;;;4.00;2.20;;;16.40;99.90;;;;;;5072591;28;20931;-68
2023/07/05 08:16:07;;;;;;;5.00;2.35;;;16.30;99.90;;;;;;5091299;28;20817;-68
2023/07/05 08:18:33;;;;;;;5.60;2.53;;;16.20;99.90;;;;;;5055276;28;20414;-68
2023/07/05 08:20:59;;;;;;;10.30;3.30;;;16.00;99.90;;;;;;5072780;28;20462;-68
2023/07/05 08:23:25;;;;;;;5.90;1.00;;;15.70;1.00;;;;;;5090649;28;20425;-68
2023/07/05 08:25:54;;;;;;;2.63;0.50;;;15.20;1.00;;;;;;5072906;28;20460;-68
2023/07/05 08:28:22;;;;;;;3.80;0.63;;;14.60;1.00;;;;;;5089593;28;20402;-68
2023/07/05 08:30:52;;;;;;;1.00;0.20;;;14.00;1.00;;;;;;5090035;28;20421;-68
2023/07/05 08:33:18;;;;;;;4.00;0.73;;;13.70;1.00;;;;;;5086230;28;20414;-68
2023/07/05 08:35:43;;;;;;;1.65;0.63;;;13.60;1.00;;;;;;5088399;28;20417;-68
2023/07/05 08:38:09;;;;;;;1.73;0.80;;;13.50;1.00;;;;;;5071181;28;20444;-68
2023/07/05 08:40:38;;;;;;;3.23;0.97;;;13.60;1.00;;;;;;5071646;28;20431;-68
2023/07/05 08:43:22;;;;;;;1.08;0.35;;;13.60;1.00;;;;;;5068733;28;20406;-68
2023/07/05 08:45:58;;;;;;;1.33;0.35;;;13.60;1.00;;;;;;5061442;28;20439;-68
2023/07/05 08:48:23;;;;;;;2.00;0.50;;;13.60;1.00;;;;;;5072236;28;20930;-67
2023/07/05 08:50:55;;;;;;;2.33;0.70;;;13.60;1.00;;;;;;5071033;28;20485;-67
2023/07/05 08:53:21;;;;;;;2.50;0.40;;;13.50;1.00;;;;;;5070857;28;20915;-68
2023/07/05 08:55:53;;;;;;;2.72;0.32;;;13.40;1.00;;;;;;5054981;28;20459;-68
2023/07/05 08:58:30;;;;;;;1.75;0.30;;;13.40;1.00;;;;;;5071828;28;20471;-68
2023/07/05 09:01:04;;;;;;;1.63;0.40;;;13.30;1.00;;;;;;5066846;28;20493;-68
2023/07/05 09:03:30;;;;;;;1.50;0.30;;;13.20;1.00;;;;;;5064275;28;20466;-68
2023/07/05 09:06:10;;;;;;;0.85;0.32;;;13.10;1.00;;;;;;5088473;28;20786;-68
2023/07/05 09:09:08;;;;;;;2.42;0.38;;;13.00;1.00;;;;;;5071734;28;20414;-67
2023/07/05 09:11:52;;;;;;;0.95;0.35;;;13.00;1.00;;;;;;5047275;28;20418;-68
2023/07/05 09:14:41;;;;;;;1.17;0.40;;;12.90;1.00;;;;;;5051644;28;20430;-68
2023/07/05 09:17:17;;;;;;;2.30;0.50;;;13.00;1.00;;;;;;5071723;28;20467;-68
2023/07/05 09:19:50;;;;;;;3.08;0.40;;;13.00;1.00;;;;;;5063117;28;20434;-67
2023/07/05 09:22:21;;;;;;;1.90;0.40;;;13.00;1.00;;;;;;5089605;28;20455;-67
2023/07/05 09:24:46;;;;;;;1.90;0.30;;;13.00;1.00;;;;;;5071117;28;20432;-68
2023/07/05 09:27:39;;;;;;;2.20;0.50;;;13.00;1.00;;;;;;5071193;28;20399;-68
2023/07/05 09:30:17;;;;;;;1.93;0.40;;;12.90;1.00;;;;;;5081528;28;20901;-68
2023/07/05 09:33:02;;;;;;;2.97;0.60;;;12.90;1.00;;;;;;5071236;28;20993;-67
2023/07/05 09:35:29;;;;;;;1.40;0.60;;;12.90;15.70;;;;;;5066950;28;20449;-67
2023/07/05 09:38:01;;;;;;;1.55;0.40;;;12.80;14.30;;;;;;5054432;28;20923;-68
2023/07/05 09:40:31;;;;;;;3.25;0.55;;;12.90;16.70;;;;;;5088860;28;20406;-68
2023/07/05 09:43:19;;;;;;;6.00;0.90;;;12.80;18.80;;;;;;5070504;28;20462;-68
2023/07/05 09:45:45;;;;;;;2.30;0.67;;;12.90;19.20;;;;;;5063939;28;20410;-68
2023/07/05 09:48:12;;;;;;;2.45;0.63;;;13.00;22.20;;;;;;5088859;28;20899;-68
2023/07/05 09:50:45;;;;;;;3.70;0.70;;;13.00;22.90;;;;;;5062507;28;20403;-68
2023/07/05 09:53:47;;;;;;;4.38;0.90;;;13.10;18.40;;;;;;5062626;28;20417;-68
2023/07/05 09:56:27;;;;;;;5.07;0.68;;;13.20;16.70;;;;;;5064962;28;20447;-68
2023/07/05 09:59:17;;;;;;;3.53;0.60;;;13.30;18.40;;;;;;5064298;28;20416;-68
2023/07/05 10:01:48;;;;;;;2.88;0.50;;;13.30;16.20;;;;;;5070508;28;20414;-68
2023/07/05 10:04:16;;;;;;;9.13;0.90;;;13.40;19.60;;;;;;5070637;28;20761;-68
2023/07/05 10:06:46;;;;;;;3.70;0.60;;;13.30;15.30;;;;;;5070579;28;20394;-68
2023/07/05 10:09:15;;;;;;;4.17;0.80;;;13.40;17.90;;;;;;5070527;28;20502;-68
2023/07/05 10:11:52;;;;;;;5.78;0.90;;;13.40;20.50;;;;;;5071071;28;21242;-68
2023/07/05 10:14:32;;;;;;;5.93;0.90;;;13.40;14.60;;;;;;5044335;28;20477;-68
2023/07/05 10:17:04;;;;;;;5.13;1.00;;;13.40;17.00;;;;;;5070555;28;20830;-68
2023/07/05 10:19:38;;;;;;;7.35;0.80;;;13.50;17.80;;;;;;5069946;28;20409;-68
2023/07/05 10:22:14;;;;;;;4.15;0.30;;;13.50;11.30;;;;;;5050988;28;20411;-68
2023/07/05 10:24:48;;;;;;;4.93;0.50;;;13.60;1.90;;;;;;5069981;28;20455;-68
2023/07/05 10:27:34;;;;;;;3.80;0.30;;;13.70;1.00;;;;;;5057254;28;20409;-68
2023/07/05 10:30:07;;;;;;;4.35;0.30;;;13.80;1.00;;;;;;5087839;28;20406;-68
2023/07/05 10:32:33;;;;;;;3.38;0.30;;;13.90;1.00;;;;;;5070294;28;20414;-68
2023/07/05 10:35:01;;;;;;;7.57;0.50;;;13.90;1.00;;;;;;5065103;28;20522;-68
2023/07/05 10:37:37;;;;;;;3.38;0.20;;;14.00;1.00;;;;;;5064020;28;21596;-68
2023/07/05 10:40:05;;;;;;;4.78;0.30;;;14.10;1.00;;;;;;5088290;28;20402;-68
2023/07/05 10:42:32;;;;;;;3.67;0.30;;;14.10;1.00;;;;;;5069699;28;20556;-68
2023/07/05 10:45:00;;;;;;;3.00;0.30;;;14.20;1.00;;;;;;5069729;28;21048;-68
2023/07/05 10:47:29;;;;;;;2.80;0.20;;;14.20;1.00;;;;;;5069753;28;20414;-68
2023/07/05 10:50:03;;;;;;;4.20;0.55;;;14.30;1.00;;;;;;5078667;28;20918;-68
2023/07/05 10:52:31;;;;;;;3.28;0.40;;;14.40;1.00;;;;;;5042265;28;20429;-68
2023/07/05 10:55:14;;;;;;;2.50;0.28;;;14.60;1.00;;;;;;5070142;28;20434;-68
2023/07/05 10:57:44;;;;;;;2.08;0.20;;;14.80;1.00;;;;;;5067271;28;20409;-68
2023/07/05 11:00:13;;;;;;;3.10;0.20;;;15.10;1.00;;;;;;5060312;28;21078;-68
2023/07/05 11:02:45;;;;;;;2.10;0.20;;;15.60;1.00;;;;;;5064941;28;20411;-68
2023/07/05 11:05:35;;;;;;;2.63;0.40;;;16.00;1.00;;;;;;5065990;28;20410;-68
2023/07/05 11:08:04;;;;;;;5.32;0.30;;;16.30;1.00;;;;;;5080869;28;20402;-69
2023/07/05 11:10:38;;;;;;;3.55;0.30;;;16.50;1.00;;;;;;5056695;28;20413;-68
2023/07/05 11:13:05;;;;;;;5.75;0.60;;;16.60;1.00;;;;;;5069238;28;20489;-68
2023/07/05 11:15:32;;;;;;;3.20;0.43;;;16.60;99.90;;;;;;5068515;28;20806;-68
2023/07/05 11:17:59;;;;;;;3.30;0.30;;;16.50;99.90;;;;;;5087720;28;20397;-68
2023/07/05 11:20:45;;;;;;;5.20;0.75;;;16.50;99.90;;;;;;5087182;28;20984;-68
2023/07/05 11:23:13;;;;;;;2.00;0.20;;;16.50;99.90;;;;;;5068417;28;20414;-68
2023/07/05 11:25:58;;;;;;;2.63;0.25;;;16.50;99.90;;;;;;5069656;28;20485;-68
2023/07/05 11:28:38;;;;;;;2.70;0.30;;;16.60;99.90;;;;;;5070836;28;20410;-69
2023/07/05 11:31:06;;;;;;;1.53;0.40;;;16.80;99.90;;;;;;5071807;28;20402;-68
2023/07/05 11:33:32;;;;;;;2.08;0.20;;;16.90;99.90;;;;;;5063354;28;20434;-68
2023/07/05 11:36:28;;;;;;;1.02;0.20;;;17.00;99.90;;;;;;5073833;28;21154;-68
2023/07/05 11:38:59;;;;;;;2.00;0.20;;;17.20;99.90;;;;;;5056219;28;20497;-69
2023/07/05 11:41:30;;;;;;;2.13;0.20;;;17.40;99.90;;;;;;5089664;28;20410;-68
2023/07/05 11:44:04;;;;;;;1.80;0.40;;;17.50;99.90;;;;;;5091204;28;21009;-68
2023/07/05 11:46:39;;;;;;;2.47;0.22;;;17.70;99.90;;;;;;5070262;28;20410;-68
2023/07/05 11:49:20;;;;;;;1.80;0.30;;;18.10;99.90;;;;;;5072957;28;20402;-69
2023/07/05 11:51:51;;;;;;;1.33;0.20;;;18.60;99.90;;;;;;5063813;28;20423;-69
2023/07/05 11:54:21;;;;;;;1.55;0.30;;;19.00;99.90;;;;;;5090497;28;21506;-68
2023/07/05 11:56:51;;;;;;;2.30;0.32;;;19.10;99.90;;;;;;5073044;28;20402;-68
2023/07/05 11:59:19;;;;;;;1.88;0.40;;;19.00;1.00;;;;;;5072931;28;21330;-68
2023/07/05 12:01:46;;;;;;;2.43;0.50;;;18.80;1.00;;;;;;5072618;28;20406;-68
2023/07/05 12:04:21;;;;;;;2.30;0.38;;;18.70;1.00;;;;;;5072967;28;20972;-68
2023/07/05 12:06:47;;;;;;;2.35;0.40;;;18.60;1.00;;;;;;5072576;28;20477;-69
2023/07/05 12:09:16;;;;;;;4.32;0.50;;;18.70;1.00;;;;;;5073020;28;20414;-68
2023/07/05 12:11:42;;;;;;;2.87;0.40;;;18.80;1.00;;;;;;5072510;28;20410;-69
2023/07/05 12:14:16;;;;;;;1.45;0.47;;;18.80;1.00;;;;;;5068225;28;20423;-68
2023/07/05 12:16:43;;;;;;;2.65;0.43;;;18.70;99.90;;;;;;5070159;28;20440;-68
2023/07/05 12:19:24;;;;;;;2.65;0.50;;;18.60;99.90;;;;;;5072928;28;20922;-68
2023/07/05 12:21:58;;;;;;;3.17;0.40;;;18.30;99.90;;;;;;5063580;28;20553;-68
2023/07/05 12:24:24;;;;;;;3.33;0.47;;;18.10;1.00;;;;;;5072484;28;20857;-68
2023/07/05 12:26:50;;;;;;;3.22;0.50;;;18.00;1.00;;;;;;5072789;28;20471;-68
2023/07/05 12:29:25;;;;;;;4.72;0.65;;;17.80;1.00;;;;;;5072576;28;20410;-68
2023/07/05 12:32:07;;;;;;;2.90;0.50;;;17.70;1.00;;;;;;5072289;28;20414;-69
2023/07/05 12:34:33;;;;;;;6.35;0.73;;;17.70;11.20;;;;;;5072506;28;20867;-68
2023/07/05 12:36:59;;;;;;;4.35;0.68;;;17.60;1.00;;;;;;5043685;28;20415;-68
2023/07/05 12:39:25;;;;;;;7.50;0.90;;;17.50;55.40;;;;;;5088202;28;20433;-68
2023/07/05 12:42:17;;;;;;;9.60;1.40;;;17.30;99.90;;;;;;5072398;28;20426;-68
2023/07/05 12:44:43;;;;;;;9.57;1.20;;;16.80;99.90;;;;;;5067020;28;20442;-69
2023/07/05 12:47:16;;;;;;;8.23;1.25;;;16.40;99.90;;;;;;5066516;28;20437;-68
2023/07/05 12:49:42;;;;;;;5.20;1.08;;;16.10;99.90;;;;;;5071795;28;20769;-68
2023/07/05 12:52:20;;;;;;;4.40;0.95;;;15.70;99.90;;;;;;5061045;28;20417;-69
2023/07/05 12:54:46;;;;;;;5.22;1.00;;;15.50;1.00;;;;;;5071705;28;20943;-69
2023/07/05 12:57:21;;;;;;;5.03;1.10;;;15.20;1.00;;;;;;5089583;28;20945;-68
2023/07/05 12:59:48;;;;;;;4.22;0.65;;;15.10;1.00;;;;;;5063614;28;20456;-68